createdAt,value
2018-04-11T00:00:21.038Z,0.00
2018-04-11T00:01:21.255Z,0.00
2018-04-11T00:02:21.467Z,0.00
2018-04-11T00:03:21.663Z,0.00
2018-04-11T00:04:21.874Z,0.00
2018-04-11T00:05:22.086Z,0.00
2018-04-11T00:06:22.298Z,0.00
2018-04-11T00:07:22.519Z,0.00
2018-04-11T00:08:22.725Z,0.00
2018-04-11T00:09:22.935Z,0.00
2018-04-11T00:10:24.885Z,0.00
2018-04-11T00:11:23.325Z,0.00
2018-04-11T00:12:23.545Z,0.00
2018-04-11T00:13:23.770Z,0.00
2018-04-11T00:14:23.980Z,0.00
2018-04-11T00:15:25.875Z,0.00
2018-04-11T00:16:24.213Z,0.00
2018-04-11T00:17:24.426Z,0.00
2018-04-11T00:18:24.652Z,0.00
2018-04-11T00:19:24.869Z,0.00
2018-04-11T00:20:25.073Z,0.00
2018-04-11T00:21:25.291Z,0.00
2018-04-11T00:22:25.494Z,0.00
2018-04-11T00:23:27.383Z,0.00
2018-04-11T00:24:25.840Z,0.00
2018-04-11T00:25:26.049Z,0.00
2018-04-11T00:26:26.263Z,0.00
2018-04-11T00:27:28.379Z,0.00
2018-04-11T00:28:26.712Z,0.00
2018-04-11T00:29:26.916Z,0.00
2018-04-11T00:30:27.122Z,0.00
2018-04-11T00:31:27.344Z,0.00
2018-04-11T00:32:27.554Z,0.00
2018-04-11T00:33:27.762Z,0.00
2018-04-11T00:34:27.978Z,0.00
2018-04-11T00:35:28.185Z,0.00
2018-04-11T00:36:28.396Z,0.00
2018-04-11T00:37:28.612Z,0.00
2018-04-11T00:38:28.816Z,0.00
2018-04-11T00:39:29.033Z,0.00
2018-04-11T00:40:29.250Z,0.00
2018-04-11T00:41:30.517Z,0.00
2018-04-11T00:42:31.367Z,0.00
2018-04-11T00:43:29.828Z,0.00
2018-04-11T00:44:30.033Z,0.00
2018-04-11T00:45:30.251Z,0.00
2018-04-11T00:46:30.460Z,0.00
2018-04-11T00:47:30.673Z,0.00
2018-04-11T00:48:30.879Z,0.00
2018-04-11T00:49:31.096Z,0.00
2018-04-11T00:50:31.318Z,0.00
2018-04-11T00:51:31.515Z,0.00
2018-04-11T00:52:31.732Z,0.00
2018-04-11T00:53:33.868Z,0.00
2018-04-11T00:54:32.075Z,0.00
2018-04-11T00:55:32.360Z,0.00
2018-04-11T00:56:32.487Z,0.00
2018-04-11T00:57:32.687Z,0.00
2018-04-11T00:58:32.899Z,0.00
2018-04-11T00:59:33.110Z,0.00
2018-04-11T01:00:33.343Z,0.00
2018-04-11T01:01:33.538Z,0.00
2018-04-11T01:02:33.736Z,0.00
2018-04-11T01:03:33.955Z,0.00
2018-04-11T01:04:34.175Z,0.00
2018-04-11T01:05:34.373Z,0.00
2018-04-11T01:06:34.595Z,0.00
2018-04-11T01:07:34.797Z,0.00
2018-04-11T01:08:35.006Z,0.00
2018-04-11T01:09:35.233Z,0.00
2018-04-11T01:10:35.432Z,0.00
2018-04-11T01:11:39.367Z,0.00
2018-04-11T01:12:35.821Z,0.00
2018-04-11T01:13:36.046Z,0.00
2018-04-11T01:14:36.258Z,0.00
2018-04-11T01:15:36.467Z,0.00
2018-04-11T01:16:36.677Z,0.00
2018-04-11T01:17:36.879Z,0.00
2018-04-11T01:18:37.094Z,0.00
2018-04-11T01:19:37.305Z,0.00
2018-04-11T01:20:37.509Z,0.00
2018-04-11T01:21:37.711Z,0.00
2018-04-11T01:22:37.922Z,0.00
2018-04-11T01:23:38.127Z,0.00
2018-04-11T01:24:38.340Z,0.00
2018-04-11T01:25:38.556Z,0.00
2018-04-11T01:26:38.762Z,0.00
2018-04-11T01:27:38.978Z,0.00
2018-04-11T01:28:39.207Z,0.00
2018-04-11T01:29:41.368Z,0.00
2018-04-11T01:30:39.618Z,0.00
2018-04-11T01:31:41.367Z,0.00
2018-04-11T01:32:39.947Z,0.00
2018-04-11T01:33:40.153Z,0.00
2018-04-11T01:34:40.353Z,0.00
2018-04-11T01:35:40.557Z,0.00
2018-04-11T01:36:40.777Z,0.00
2018-04-11T01:37:40.986Z,0.00
2018-04-11T01:38:41.209Z,0.00
2018-04-11T01:39:41.418Z,0.00
2018-04-11T01:40:41.632Z,0.00
2018-04-11T01:41:41.848Z,0.00
2018-04-11T01:42:42.054Z,0.00
2018-04-11T01:43:42.272Z,0.00
2018-04-11T01:44:42.485Z,0.00
2018-04-11T01:45:42.692Z,0.00
2018-04-11T01:46:42.904Z,0.00
2018-04-11T01:47:44.865Z,0.00
2018-04-11T01:48:43.326Z,0.00
2018-04-11T01:49:43.542Z,0.00
2018-04-11T01:50:43.747Z,0.00
2018-04-11T01:51:43.982Z,0.00
2018-04-11T01:52:45.869Z,0.00
2018-04-11T01:53:44.331Z,0.00
2018-04-11T01:54:44.549Z,0.00
2018-04-11T01:55:44.751Z,0.00
2018-04-11T01:56:44.966Z,0.00
2018-04-11T01:57:45.181Z,0.00
2018-04-11T01:58:45.384Z,0.00
2018-04-11T01:59:45.600Z,0.00
2018-04-11T02:00:45.810Z,0.00
2018-04-11T02:01:46.027Z,0.00
2018-04-11T02:02:49.869Z,0.00
2018-04-11T02:03:46.458Z,0.00
2018-04-11T02:04:46.667Z,0.00
2018-04-11T02:05:46.872Z,0.00
2018-04-11T02:06:47.084Z,0.00
2018-04-11T02:07:47.297Z,0.00
2018-04-11T02:08:49.373Z,0.00
2018-04-11T02:09:47.699Z,0.00
2018-04-11T02:10:47.908Z,0.00
2018-04-11T02:11:48.113Z,0.00
2018-04-11T02:12:48.323Z,0.00
2018-04-11T02:13:48.537Z,0.00
2018-04-11T02:14:48.747Z,0.00
2018-04-11T02:15:50.872Z,0.00
2018-04-11T02:16:49.076Z,0.00
2018-04-11T02:17:49.279Z,0.00
2018-04-11T02:18:49.499Z,0.00
2018-04-11T02:19:51.370Z,0.00
2018-04-11T02:20:49.894Z,0.00
2018-04-11T02:21:49.987Z,0.00
2018-04-11T02:22:50.188Z,0.00
2018-04-11T02:23:50.405Z,0.00
2018-04-11T02:24:50.621Z,0.00
2018-04-11T02:25:52.368Z,0.00
2018-04-11T02:26:50.957Z,0.00
2018-04-11T02:27:51.169Z,0.00
2018-04-11T02:28:51.383Z,0.00
2018-04-11T02:29:51.597Z,0.00
2018-04-11T02:30:53.376Z,0.00
2018-04-11T02:31:51.967Z,0.00
2018-04-11T02:32:52.175Z,0.00
2018-04-11T02:33:52.404Z,0.00
2018-04-11T02:34:52.619Z,0.00
2018-04-11T02:35:52.823Z,0.00
2018-04-11T02:36:53.037Z,0.00
2018-04-11T02:37:53.251Z,0.00
2018-04-11T02:38:53.451Z,0.00
2018-04-11T02:39:53.656Z,0.00
2018-04-11T02:40:55.368Z,0.00
2018-04-11T02:41:54.080Z,0.00
2018-04-11T02:42:54.301Z,0.00
2018-04-11T02:43:54.503Z,0.00
2018-04-11T02:44:54.764Z,0.00
2018-04-11T02:45:54.931Z,0.00
2018-04-11T02:46:55.139Z,0.00
2018-04-11T02:47:55.357Z,0.00
2018-04-11T02:48:55.571Z,0.00
2018-04-11T02:49:56.450Z,0.00
2018-04-11T02:50:55.920Z,0.00
2018-04-11T02:51:56.129Z,0.00
2018-04-11T02:52:56.329Z,0.00
2018-04-11T02:53:56.540Z,0.00
2018-04-11T02:54:56.747Z,0.00
2018-04-11T02:55:56.948Z,0.00
2018-04-11T02:56:57.152Z,0.00
2018-04-11T02:57:57.363Z,0.00
2018-04-11T02:58:57.580Z,0.00
2018-04-11T02:59:57.791Z,0.00
2018-04-11T03:00:58.010Z,0.00
2018-04-11T03:01:58.228Z,0.00
2018-04-11T03:02:58.426Z,0.00
2018-04-11T03:04:02.372Z,0.00
2018-04-11T03:04:58.823Z,0.00
2018-04-11T03:06:00.875Z,0.00
2018-04-11T03:06:59.221Z,0.00
2018-04-11T03:07:59.423Z,0.00
2018-04-11T03:09:01.373Z,0.00
2018-04-11T03:09:59.824Z,0.00
2018-04-11T03:11:00.033Z,0.00
2018-04-11T03:12:00.245Z,0.00
2018-04-11T03:13:00.452Z,0.00
2018-04-11T03:14:00.669Z,0.00
2018-04-11T03:15:00.877Z,0.00
2018-04-11T03:16:02.875Z,0.00
2018-04-11T03:17:01.216Z,0.00
2018-04-11T03:18:01.426Z,0.00
2018-04-11T03:19:03.375Z,0.00
2018-04-11T03:20:01.837Z,0.00
2018-04-11T03:21:03.871Z,0.00
2018-04-11T03:22:02.201Z,0.00
2018-04-11T03:23:02.412Z,0.00
2018-04-11T03:24:02.627Z,0.00
2018-04-11T03:25:02.842Z,0.00
2018-04-11T03:26:04.872Z,0.00
2018-04-11T03:27:03.215Z,0.00
2018-04-11T03:28:03.422Z,0.00
2018-04-11T03:29:03.629Z,0.00
2018-04-11T03:30:05.372Z,0.00
2018-04-11T03:31:03.962Z,0.00
2018-04-11T03:32:04.162Z,0.00
2018-04-11T03:33:04.386Z,0.00
2018-04-11T03:34:04.596Z,0.00
2018-04-11T03:35:04.801Z,0.00
2018-04-11T03:36:05.020Z,0.00
2018-04-11T03:37:05.235Z,0.00
2018-04-11T03:38:05.462Z,0.00
2018-04-11T03:39:05.656Z,0.00
2018-04-11T03:40:05.863Z,0.00
2018-04-11T03:41:07.873Z,0.00
2018-04-11T03:42:06.215Z,0.00
2018-04-11T03:43:06.412Z,0.00
2018-04-11T03:44:06.633Z,0.00
2018-04-11T03:45:06.857Z,0.00
2018-04-11T03:46:08.875Z,0.00
2018-04-11T03:47:07.213Z,0.00
2018-04-11T03:48:07.416Z,0.00
2018-04-11T03:49:07.647Z,0.00
2018-04-11T03:50:07.833Z,0.00
2018-04-11T03:51:08.052Z,0.00
2018-04-11T03:52:08.260Z,0.00
2018-04-11T03:53:08.467Z,0.00
2018-04-11T03:54:08.706Z,0.00
2018-04-11T03:55:08.884Z,0.00
2018-04-11T03:56:10.871Z,0.00
2018-04-11T03:57:12.871Z,0.00
2018-04-11T03:58:11.115Z,0.00
2018-04-11T03:59:11.377Z,0.00
2018-04-11T04:00:09.697Z,0.00
2018-04-11T04:01:09.903Z,0.00
2018-04-11T04:02:10.120Z,0.00
2018-04-11T04:03:10.331Z,0.00
2018-04-11T04:04:10.536Z,0.00
2018-04-11T04:05:10.749Z,0.00
2018-04-11T04:06:10.973Z,0.00
2018-04-11T04:07:11.200Z,0.00
2018-04-11T04:08:13.416Z,0.00
2018-04-11T04:09:11.569Z,4.00
2018-04-11T04:10:11.786Z,0.00
2018-04-11T04:11:12.000Z,4.00
2018-04-11T04:12:12.198Z,4.00
2018-04-11T04:13:12.418Z,4.00
2018-04-11T04:14:12.626Z,4.00
2018-04-11T04:15:12.848Z,8.00
2018-04-11T04:16:13.048Z,4.00
2018-04-11T04:17:13.264Z,8.00
2018-04-11T04:18:13.473Z,8.00
2018-04-11T04:19:13.681Z,4.00
2018-04-11T04:20:13.900Z,4.00
2018-04-11T04:21:17.893Z,8.00
2018-04-11T04:22:14.331Z,8.00
2018-04-11T04:23:14.542Z,8.00
2018-04-11T04:24:14.751Z,8.00
2018-04-11T04:25:14.973Z,8.00
2018-04-11T04:26:15.189Z,8.00
2018-04-11T04:27:15.397Z,12.00
2018-04-11T04:28:15.613Z,12.00
2018-04-11T04:29:15.829Z,20.00
2018-04-11T04:30:16.033Z,20.00
2018-04-11T04:31:17.872Z,20.00
2018-04-11T04:32:16.451Z,20.00
2018-04-11T04:33:16.671Z,24.00
2018-04-11T04:34:18.369Z,24.00
2018-04-11T04:35:17.071Z,24.00
2018-04-11T04:36:17.284Z,24.00
2018-04-11T04:37:17.504Z,28.00
2018-04-11T04:38:19.369Z,28.00
2018-04-11T04:39:17.828Z,28.00
2018-04-11T04:40:18.032Z,32.00
2018-04-11T04:41:18.234Z,32.00
2018-04-11T04:42:20.367Z,36.00
2018-04-11T04:43:18.577Z,36.00
2018-04-11T04:44:18.799Z,36.00
2018-04-11T04:45:20.874Z,36.00
2018-04-11T04:46:19.213Z,36.00
2018-04-11T04:47:19.432Z,32.00
2018-04-11T04:48:19.640Z,36.00
2018-04-11T04:49:19.848Z,36.00
2018-04-11T04:50:20.068Z,36.00
2018-04-11T04:51:20.273Z,44.00
2018-04-11T04:52:22.374Z,44.00
2018-04-11T04:53:20.705Z,52.00
2018-04-11T04:54:20.911Z,56.00
2018-04-11T04:55:21.124Z,68.00
2018-04-11T04:56:22.870Z,72.00
2018-04-11T04:57:21.460Z,72.00
2018-04-11T04:58:23.375Z,68.00
2018-04-11T04:59:21.832Z,68.00
2018-04-11T05:00:22.048Z,72.00
2018-04-11T05:01:22.260Z,76.00
2018-04-11T05:02:22.477Z,84.00
2018-04-11T05:03:22.697Z,92.00
2018-04-11T05:04:22.902Z,104.00
2018-04-11T05:05:23.110Z,112.00
2018-04-11T05:06:23.336Z,112.00
2018-04-11T05:07:23.541Z,116.00
2018-04-11T05:08:23.749Z,124.00
2018-04-11T05:09:23.956Z,140.00
2018-04-11T05:10:24.169Z,164.00
2018-04-11T05:11:24.386Z,196.00
2018-04-11T05:12:24.590Z,240.00
2018-04-11T05:13:24.815Z,276.00
2018-04-11T05:14:25.025Z,300.00
2018-04-11T05:15:25.233Z,328.00
2018-04-11T05:16:25.447Z,380.00
2018-04-11T05:17:25.654Z,460.00
2018-04-11T05:18:25.868Z,556.00
2018-04-11T05:19:26.086Z,624.00
2018-04-11T05:20:26.285Z,616.00
2018-04-11T05:21:28.367Z,528.00
2018-04-11T05:22:26.713Z,436.00
2018-04-11T05:23:26.919Z,392.00
2018-04-11T05:24:27.137Z,368.00
2018-04-11T05:25:27.341Z,356.00
2018-04-11T05:26:27.566Z,344.00
2018-04-11T05:27:27.782Z,336.00
2018-04-11T05:28:27.988Z,336.00
2018-04-11T05:29:29.878Z,340.00
2018-04-11T05:30:28.336Z,340.00
2018-04-11T05:31:28.544Z,348.00
2018-04-11T05:32:30.377Z,352.00
2018-04-11T05:33:28.952Z,364.00
2018-04-11T05:34:29.161Z,384.00
2018-04-11T05:35:32.873Z,412.00
2018-04-11T05:36:29.580Z,444.00
2018-04-11T05:37:29.797Z,472.00
2018-04-11T05:38:30.006Z,480.00
2018-04-11T05:39:30.216Z,464.00
2018-04-11T05:40:34.369Z,452.00
2018-04-11T05:41:30.570Z,460.00
2018-04-11T05:42:33.922Z,480.00
2018-04-11T05:43:30.997Z,488.00
2018-04-11T05:44:31.222Z,484.00
2018-04-11T05:45:31.411Z,484.00
2018-04-11T05:46:31.620Z,472.00
2018-04-11T05:47:31.832Z,432.00
2018-04-11T05:48:33.878Z,372.00
2018-04-11T05:49:32.204Z,340.00
2018-04-11T05:50:32.430Z,360.00
2018-04-11T05:51:32.663Z,400.00
2018-04-11T05:52:32.867Z,420.00
2018-04-11T05:53:34.889Z,404.00
2018-04-11T05:54:33.206Z,388.00
2018-04-11T05:55:33.412Z,376.00
2018-04-11T05:56:33.632Z,384.00
2018-04-11T05:57:33.839Z,400.00
2018-04-11T05:58:34.085Z,408.00
2018-04-11T05:59:34.196Z,388.00
2018-04-11T06:00:34.395Z,356.00
2018-04-11T06:01:34.617Z,336.00
2018-04-11T06:02:34.820Z,328.00
2018-04-11T06:03:35.096Z,328.00
2018-04-11T06:04:35.349Z,320.00
2018-04-11T06:05:36.877Z,308.00
2018-04-11T06:06:41.485Z,296.00
2018-04-11T06:07:35.633Z,284.00
2018-04-11T06:08:37.382Z,276.00
2018-04-11T06:09:37.979Z,284.00
2018-04-11T06:10:36.171Z,308.00
2018-04-11T06:11:36.382Z,328.00
2018-04-11T06:12:36.590Z,336.00
2018-04-11T06:13:48.499Z,340.00
2018-04-11T06:14:40.975Z,332.00
2018-04-11T06:15:37.187Z,316.00
2018-04-11T06:16:37.395Z,308.00
2018-04-11T06:17:37.610Z,316.00
2018-04-11T06:18:37.823Z,336.00
2018-04-11T06:19:38.033Z,364.00
2018-04-11T06:20:38.239Z,392.00
2018-04-11T06:21:38.450Z,408.00
2018-04-11T06:22:38.658Z,412.00
2018-04-11T06:23:38.873Z,424.00
2018-04-11T06:24:39.473Z,444.00
2018-04-11T06:25:47.010Z,472.00
2018-04-11T06:26:39.555Z,500.00
2018-04-11T06:27:39.803Z,516.00
2018-04-11T06:28:39.815Z,520.00
2018-04-11T06:29:43.872Z,540.00
2018-04-11T06:30:40.210Z,572.00
2018-04-11T06:31:40.404Z,600.00
2018-04-11T06:32:43.857Z,624.00
2018-04-11T06:33:40.886Z,640.00
2018-04-11T06:34:41.056Z,648.00
2018-04-11T06:35:41.248Z,664.00
2018-04-11T06:36:41.455Z,680.00
2018-04-11T06:37:41.664Z,712.00
2018-04-11T06:38:41.869Z,744.00
2018-04-11T06:39:42.093Z,784.00
2018-04-11T06:40:42.306Z,812.00
2018-04-11T06:41:42.501Z,828.00
2018-04-11T06:42:42.701Z,840.00
2018-04-11T06:43:42.908Z,868.00
2018-04-11T06:44:43.115Z,940.00
2018-04-11T06:45:43.332Z,1032.00
2018-04-11T06:46:43.535Z,1084.00
2018-04-11T06:47:43.743Z,1136.00
2018-04-11T06:48:43.945Z,1240.00
2018-04-11T06:49:44.167Z,1312.00
2018-04-11T06:50:44.373Z,1336.00
2018-04-11T06:51:44.572Z,1296.00
2018-04-11T06:52:44.779Z,1284.00
2018-04-11T06:53:44.999Z,1348.00
2018-04-11T06:54:45.201Z,1464.00
2018-04-11T06:55:45.419Z,1504.00
2018-04-11T06:56:45.637Z,1488.00
2018-04-11T06:57:45.836Z,1500.00
2018-04-11T06:58:46.056Z,1564.00
2018-04-11T06:59:46.260Z,1696.00
2018-04-11T07:00:46.470Z,1740.00
2018-04-11T07:01:48.375Z,1724.00
2018-04-11T07:02:48.373Z,1712.00
2018-04-11T07:03:46.959Z,1684.00
2018-04-11T07:04:48.216Z,1664.00
2018-04-11T07:05:47.760Z,1696.00
2018-04-11T07:06:47.503Z,1748.00
2018-04-11T07:07:47.702Z,1784.00
2018-04-11T07:08:47.930Z,1780.00
2018-04-11T07:09:48.327Z,1736.00
2018-04-11T07:10:48.598Z,1668.00
2018-04-11T07:11:50.337Z,1592.00
2018-04-11T07:12:50.597Z,1568.00
2018-04-11T07:13:49.329Z,1596.00
2018-04-11T07:14:52.724Z,1608.00
2018-04-11T07:15:49.175Z,1620.00
2018-04-11T07:16:49.475Z,1656.00
2018-04-11T07:17:50.469Z,1736.00
2018-04-11T07:18:51.599Z,1812.00
2018-04-11T07:19:50.800Z,1876.00
2018-04-11T07:20:50.861Z,1980.00
2018-04-11T07:21:50.329Z,2132.00
2018-04-11T07:22:50.533Z,2280.00
2018-04-11T07:23:51.044Z,2416.00
2018-04-11T07:24:52.217Z,2548.00
2018-04-11T07:25:51.371Z,2624.00
2018-04-11T07:26:51.298Z,2596.00
2018-04-11T07:27:51.512Z,2512.00
2018-04-11T07:28:51.708Z,2440.00
2018-04-11T07:29:52.048Z,2400.00
2018-04-11T07:30:52.316Z,2420.00
2018-04-11T07:31:52.408Z,2504.00
2018-04-11T07:32:52.519Z,2608.00
2018-04-11T07:33:54.378Z,2700.00
2018-04-11T07:34:52.962Z,2744.00
2018-04-11T07:35:53.173Z,2740.00
2018-04-11T07:36:53.379Z,2668.00
2018-04-11T07:37:53.606Z,2552.00
2018-04-11T07:38:53.817Z,2476.00
2018-04-11T07:39:55.875Z,2424.00
2018-04-11T07:40:54.216Z,2356.00
2018-04-11T07:41:54.431Z,2332.00
2018-04-11T07:42:54.660Z,2384.00
2018-04-11T07:43:54.865Z,2384.00
2018-04-11T07:44:55.078Z,2280.00
2018-04-11T07:45:56.875Z,2080.00
2018-04-11T07:46:55.450Z,1916.00
2018-04-11T07:47:55.668Z,1836.00
2018-04-11T07:48:55.873Z,1792.00
2018-04-11T07:49:56.083Z,1788.00
2018-04-11T07:50:57.882Z,1808.00
2018-04-11T07:51:56.455Z,1828.00
2018-04-11T07:52:56.678Z,1836.00
2018-04-11T07:53:56.876Z,1792.00
2018-04-11T07:54:57.088Z,1768.00
2018-04-11T07:55:57.307Z,1664.00
2018-04-11T07:56:57.512Z,1588.00
2018-04-11T07:57:57.724Z,1536.00
2018-04-11T07:58:57.946Z,1628.00
2018-04-11T07:59:58.150Z,1704.00
2018-04-11T08:00:58.357Z,1728.00
2018-04-11T08:01:58.571Z,1724.00
2018-04-11T08:02:58.778Z,1644.00
2018-04-11T08:03:58.989Z,1612.00
2018-04-11T08:04:59.222Z,1676.00
2018-04-11T08:05:59.409Z,1760.00
2018-04-11T08:06:59.631Z,1852.00
2018-04-11T08:07:59.842Z,1928.00
2018-04-11T08:09:00.168Z,1988.00
2018-04-11T08:10:00.292Z,1976.00
2018-04-11T08:11:00.492Z,1924.00
2018-04-11T08:12:02.373Z,1864.00
2018-04-11T08:13:00.830Z,1880.00
2018-04-11T08:14:01.042Z,1912.00
2018-04-11T08:15:01.249Z,1928.00
2018-04-11T08:16:02.862Z,2012.00
2018-04-11T08:17:03.370Z,2100.00
2018-04-11T08:18:01.707Z,2140.00
2018-04-11T08:19:01.916Z,2144.00
2018-04-11T08:20:02.129Z,2164.00
2018-04-11T08:21:02.332Z,2200.00
2018-04-11T08:22:02.545Z,2212.00
2018-04-11T08:23:04.372Z,2236.00
2018-04-11T08:24:02.952Z,2248.00
2018-04-11T08:25:03.167Z,2272.00
2018-04-11T08:26:03.386Z,2332.00
2018-04-11T08:27:03.582Z,2436.00
2018-04-11T08:28:03.795Z,2548.00
2018-04-11T08:29:05.874Z,2632.00
2018-04-11T08:30:04.210Z,2736.00
2018-04-11T08:31:04.431Z,2824.00
2018-04-11T08:32:04.640Z,2908.00
2018-04-11T08:33:04.878Z,2972.00
2018-04-11T08:34:05.062Z,2964.00
2018-04-11T08:35:05.269Z,2940.00
2018-04-11T08:36:05.485Z,2952.00
2018-04-11T08:37:05.702Z,2928.00
2018-04-11T08:38:05.893Z,3016.00
2018-04-11T08:39:06.107Z,3088.00
2018-04-11T08:40:06.313Z,3252.00
2018-04-11T08:41:06.532Z,3472.00
2018-04-11T08:42:08.372Z,3712.00
2018-04-11T08:43:06.976Z,3980.00
2018-04-11T08:44:07.165Z,4264.00
2018-04-11T08:45:07.382Z,4580.00
2018-04-11T08:46:07.590Z,4812.00
2018-04-11T08:47:09.373Z,5096.00
2018-04-11T08:48:07.962Z,5352.00
2018-04-11T08:49:08.175Z,5516.00
2018-04-11T08:50:08.385Z,5496.00
2018-04-11T08:51:08.588Z,5240.00
2018-04-11T08:52:08.795Z,4968.00
2018-04-11T08:53:09.014Z,4860.00
2018-04-11T08:54:09.209Z,4888.00
2018-04-11T08:55:12.376Z,4940.00
2018-04-11T08:56:09.594Z,5020.00
2018-04-11T08:57:09.804Z,5092.00
2018-04-11T08:58:10.012Z,5028.00
2018-04-11T08:59:10.237Z,4840.00
2018-04-11T09:00:10.437Z,4660.00
2018-04-11T09:01:10.650Z,4636.00
2018-04-11T09:02:10.861Z,4660.00
2018-04-11T09:03:11.072Z,4696.00
2018-04-11T09:04:11.286Z,4652.00
2018-04-11T09:05:13.373Z,4844.00
2018-04-11T09:06:11.712Z,5128.00
2018-04-11T09:07:13.877Z,5356.00
2018-04-11T09:08:12.083Z,5536.00
2018-04-11T09:09:12.304Z,5844.00
2018-04-11T09:10:12.501Z,6172.00
2018-04-11T09:11:12.709Z,6388.00
2018-04-11T09:12:12.929Z,6752.00
2018-04-11T09:13:13.137Z,7268.00
2018-04-11T09:14:13.345Z,7756.00
2018-04-11T09:15:13.572Z,7840.00
2018-04-11T09:16:13.790Z,7820.00
2018-04-11T09:17:13.999Z,7740.00
2018-04-11T09:18:14.218Z,7864.00
2018-04-11T09:19:14.434Z,8076.00
2018-04-11T09:20:14.637Z,8432.00
2018-04-11T09:21:16.378Z,9032.00
2018-04-11T09:22:14.958Z,9288.00
2018-04-11T09:23:16.875Z,9456.00
2018-04-11T09:24:15.340Z,9664.00
2018-04-11T09:25:17.390Z,10100.00
2018-04-11T09:26:15.752Z,10132.00
2018-04-11T09:27:15.957Z,9996.00
2018-04-11T09:28:16.177Z,10056.00
2018-04-11T09:29:16.386Z,10032.00
2018-04-11T09:30:16.604Z,9700.00
2018-04-11T09:31:16.815Z,9444.00
2018-04-11T09:32:18.875Z,9368.00
2018-04-11T09:33:17.224Z,9268.00
2018-04-11T09:34:17.436Z,9144.00
2018-04-11T09:35:17.650Z,9016.00
2018-04-11T09:36:17.869Z,9108.00
2018-04-11T09:37:18.073Z,9580.00
2018-04-11T09:38:18.279Z,10048.00
2018-04-11T09:39:18.493Z,10548.00
2018-04-11T09:40:18.703Z,10992.00
2018-04-11T09:41:18.907Z,11684.00
2018-04-11T09:42:19.130Z,12476.00
2018-04-11T09:43:19.354Z,12636.00
2018-04-11T09:44:19.562Z,12732.00
2018-04-11T09:45:19.787Z,12720.00
2018-04-11T09:46:19.994Z,12220.00
2018-04-11T09:47:20.209Z,11224.00
2018-04-11T09:48:20.440Z,10692.00
2018-04-11T09:49:20.649Z,10400.00
2018-04-11T09:50:20.879Z,10232.00
2018-04-11T09:51:21.101Z,10068.00
2018-04-11T09:52:21.311Z,9892.00
2018-04-11T09:53:21.516Z,9944.00
2018-04-11T09:54:21.722Z,10236.00
2018-04-11T09:55:21.938Z,10352.00
2018-04-11T09:56:22.155Z,10120.00
2018-04-11T09:57:22.361Z,9408.00
2018-04-11T09:58:22.578Z,8664.00
2018-04-11T09:59:24.379Z,8608.00
2018-04-11T10:00:22.976Z,9096.00
2018-04-11T10:01:24.878Z,9896.00
2018-04-11T10:02:24.879Z,10452.00
2018-04-11T10:03:23.469Z,10416.00
2018-04-11T10:04:23.687Z,10252.00
2018-04-11T10:05:23.902Z,10712.00
2018-04-11T10:06:24.117Z,11788.00
2018-04-11T10:07:25.892Z,12772.00
2018-04-11T10:08:24.464Z,13072.00
2018-04-11T10:09:24.683Z,13772.00
2018-04-11T10:10:24.896Z,15496.00
2018-04-11T10:11:25.105Z,18304.00
2018-04-11T10:12:25.320Z,22400.00
2018-04-11T10:13:25.539Z,17728.00
2018-04-11T10:14:25.774Z,14632.00
2018-04-11T10:15:25.977Z,12232.00
2018-04-11T10:16:26.181Z,10668.00
2018-04-11T10:17:26.402Z,9756.00
2018-04-11T10:18:26.612Z,9240.00
2018-04-11T10:19:26.841Z,9168.00
2018-04-11T10:20:27.052Z,9008.00
2018-04-11T10:21:27.267Z,8872.00
2018-04-11T10:22:27.485Z,9044.00
2018-04-11T10:23:27.699Z,9100.00
2018-04-11T10:24:27.921Z,9072.00
2018-04-11T10:25:28.130Z,8872.00
2018-04-11T10:26:29.067Z,8972.00
2018-04-11T10:27:28.531Z,9188.00
2018-04-11T10:28:28.744Z,9304.00
2018-04-11T10:29:28.954Z,9468.00
2018-04-11T10:30:29.186Z,9860.00
2018-04-11T10:31:29.382Z,10388.00
2018-04-11T10:32:29.600Z,10640.00
2018-04-11T10:33:29.819Z,10564.00
2018-04-11T10:34:30.026Z,10756.00
2018-04-11T10:35:30.247Z,11020.00
2018-04-11T10:36:30.465Z,11704.00
2018-04-11T10:37:30.676Z,12332.00
2018-04-11T10:38:32.379Z,13116.00
2018-04-11T10:39:31.091Z,14040.00
2018-04-11T10:40:31.298Z,14136.00
2018-04-11T10:41:31.517Z,14288.00
2018-04-11T10:42:33.388Z,14788.00
2018-04-11T10:43:31.975Z,15904.00
2018-04-11T10:44:32.189Z,17664.00
2018-04-11T10:45:32.409Z,19968.00
2018-04-11T10:46:34.381Z,24256.00
2018-04-11T10:47:32.838Z,29760.00
2018-04-11T10:48:36.889Z,31776.00
2018-04-11T10:49:33.217Z,30016.00
2018-04-11T10:50:35.386Z,41344.00
2018-04-11T10:51:33.606Z,81952.00
2018-04-11T10:52:33.814Z,66336.00
2018-04-11T10:53:34.038Z,30528.00
2018-04-11T10:54:34.262Z,31424.00
2018-04-11T10:55:34.472Z,31296.00
2018-04-11T10:56:34.701Z,34240.00
2018-04-11T10:57:34.908Z,40160.00
2018-04-11T10:58:35.120Z,42080.00
2018-04-11T10:59:36.882Z,89856.00
2018-04-11T11:00:37.380Z,64000.00
2018-04-11T11:01:35.600Z,92544.00
2018-04-11T11:02:35.827Z,88768.00
2018-04-11T11:03:36.038Z,89344.00
2018-04-11T11:04:36.261Z,71712.00
2018-04-11T11:05:37.482Z,40160.00
2018-04-11T11:06:36.703Z,28608.00
2018-04-11T11:07:38.881Z,22976.00
2018-04-11T11:08:40.883Z,20800.00
2018-04-11T11:09:37.345Z,19520.00
2018-04-11T11:10:39.389Z,18432.00
2018-04-11T11:11:41.407Z,17536.00
2018-04-11T11:12:39.396Z,17408.00
2018-04-11T11:13:38.107Z,17888.00
2018-04-11T11:14:41.882Z,19264.00
2018-04-11T11:15:38.477Z,19392.00
2018-04-11T11:16:38.690Z,18688.00
2018-04-11T11:17:38.918Z,17984.00
2018-04-11T11:18:39.142Z,17280.00
2018-04-11T11:19:39.359Z,17472.00
2018-04-11T11:20:39.583Z,18848.00
2018-04-11T11:21:39.809Z,16192.00
2018-04-11T11:22:40.041Z,15832.00
2018-04-11T11:23:40.258Z,15668.00
2018-04-11T11:24:42.426Z,15432.00
2018-04-11T11:25:40.612Z,15832.00
2018-04-11T11:26:42.384Z,16704.00
2018-04-11T11:27:40.973Z,17440.00
2018-04-11T11:28:41.227Z,19200.00
2018-04-11T11:29:41.420Z,23392.00
2018-04-11T11:30:41.640Z,20288.00
2018-04-11T11:31:41.856Z,19584.00
2018-04-11T11:32:42.071Z,20448.00
2018-04-11T11:33:42.281Z,23616.00
2018-04-11T11:34:42.495Z,55520.00
2018-04-11T11:35:42.706Z,44640.00
2018-04-11T11:36:42.930Z,29600.00
2018-04-11T11:37:43.143Z,22208.00
2018-04-11T11:38:43.384Z,18688.00
2018-04-11T11:39:46.387Z,15480.00
2018-04-11T11:40:43.757Z,13924.00
2018-04-11T11:41:43.865Z,12732.00
2018-04-11T11:42:45.907Z,11836.00
2018-04-11T11:43:44.238Z,11356.00
2018-04-11T11:44:44.454Z,11244.00
2018-04-11T11:45:44.668Z,10880.00
2018-04-11T11:46:44.898Z,10476.00
2018-04-11T11:47:45.139Z,10240.00
2018-04-11T11:48:45.318Z,10052.00
2018-04-11T11:49:45.537Z,9884.00
2018-04-11T11:50:45.756Z,10024.00
2018-04-11T11:51:45.976Z,10244.00
2018-04-11T11:52:46.205Z,10284.00
2018-04-11T11:53:46.420Z,10452.00
2018-04-11T11:54:46.644Z,11040.00
2018-04-11T11:55:46.862Z,11840.00
2018-04-11T11:56:47.097Z,13004.00
2018-04-11T11:57:47.300Z,14264.00
2018-04-11T11:58:47.521Z,15596.00
2018-04-11T11:59:47.732Z,17472.00
2018-04-11T12:00:47.960Z,19840.00
2018-04-11T12:01:48.189Z,22080.00
2018-04-11T12:02:48.417Z,24128.00
2018-04-11T12:03:48.630Z,24704.00
2018-04-11T12:04:48.858Z,24480.00
2018-04-11T12:05:50.072Z,24256.00
2018-04-11T12:06:50.901Z,24000.00
2018-04-11T12:07:49.496Z,24640.00
2018-04-11T12:08:49.711Z,24032.00
2018-04-11T12:09:49.930Z,24096.00
2018-04-11T12:10:50.161Z,24480.00
2018-04-11T12:11:51.914Z,24416.00
2018-04-11T12:12:50.619Z,22656.00
2018-04-11T12:13:50.834Z,22880.00
2018-04-11T12:14:52.892Z,31936.00
2018-04-11T12:15:51.240Z,50496.00
2018-04-11T12:16:51.468Z,51584.00
2018-04-11T12:17:53.389Z,66464.00
2018-04-11T12:18:51.916Z,51008.00
2018-04-11T12:19:53.889Z,16832.00
2018-04-11T12:20:53.894Z,16544.00
2018-04-11T12:21:53.396Z,16960.00
2018-04-11T12:22:52.491Z,17760.00
2018-04-11T12:23:52.721Z,19168.00
2018-04-11T12:24:52.943Z,42848.00
2018-04-11T12:25:53.163Z,42624.00
2018-04-11T12:26:54.906Z,49856.00
2018-04-11T12:28:00.442Z,57856.00
2018-04-11T12:28:53.751Z,60000.00
2018-04-11T12:29:53.965Z,60768.00
2018-04-11T12:30:55.194Z,43232.00
2018-04-11T12:32:15.422Z,56864.00
2018-04-11T12:32:54.635Z,14436.00